Time;durP1;ratioP1;P1;durP2;ratioP2;P2;SDS_P1;SDS_P2;PMS_P1;PMS_P2;Temp;Humidity;BMP_temperature;BMP_pressure;BME280_temperature;BME280_humidity;BME280_pressure;Samples;Min_cycle;Max_cycle;Signal;HPM_P1;HPM_P2
2021/10/08 00:01:24;;;;;;;;;;;25.30;38.80;;;;;;456588;258;1184;-73
2021/10/08 00:03:25;;;;;;;;;;;25.50;38.80;;;;;;456799;260;1126;-73
2021/10/08 00:05:26;;;;;;;;;;;25.40;38.80;;;;;;456726;260;1207;-73
2021/10/08 00:07:28;;;;;;;;;;;25.40;38.80;;;;;;456724;260;1243;-73
2021/10/08 00:09:30;;;;;;;;;;;25.30;38.90;;;;;;456738;260;977;-73
2021/10/08 00:11:30;;;;;;;;;;;25.40;38.90;;;;;;456629;260;1536;-73
2021/10/08 00:13:32;;;;;;;;;;;25.40;38.80;;;;;;456650;261;2226;-73
2021/10/08 00:15:33;;;;;;;;;;;25.40;38.90;;;;;;456772;260;1071;-73
2021/10/08 00:17:34;;;;;;;;;;;25.40;38.80;;;;;;456701;260;1129;-73
2021/10/08 00:19:36;;;;;;;;;;;25.50;38.90;;;;;;456733;260;1187;-73
2021/10/08 00:21:37;;;;;;;;;;;25.40;38.80;;;;;;456659;260;1228;-73
2021/10/08 00:23:39;;;;;;;;;;;25.50;38.90;;;;;;456731;261;1083;-73
2021/10/08 00:25:40;;;;;;;;;;;25.50;38.90;;;;;;456733;260;1178;-73
2021/10/08 00:27:41;;;;;;;;;;;25.40;38.80;;;;;;456740;260;1168;-73
2021/10/08 00:29:43;;;;;;;;;;;25.30;39.00;;;;;;456768;260;1087;-73
2021/10/08 00:31:44;;;;;;;;;;;25.30;39.20;;;;;;456640;260;1310;-73
2021/10/08 00:33:45;;;;;;;;;;;25.40;38.80;;;;;;456758;260;2214;-73
2021/10/08 00:35:47;;;;;;;;;;;25.40;39.10;;;;;;456793;260;1206;-73
2021/10/08 00:37:50;;;;;;;;;;;25.50;38.90;;;;;;456761;260;1119;-73
2021/10/08 00:39:50;;;;;;;;;;;25.10;39.30;;;;;;456784;260;1869;-73
2021/10/08 00:41:51;;;;;;;;;;;24.80;39.80;;;;;;456619;260;1139;-73
2021/10/08 00:43:52;;;;;;;;;;;24.80;40.10;;;;;;456697;260;959;-73
2021/10/08 00:45:54;;;;;;;;;;;24.70;40.30;;;;;;456689;260;1244;-73
2021/10/08 00:47:55;;;;;;;;;;;24.80;40.30;;;;;;456668;260;1235;-73
2021/10/08 00:49:57;;;;;;;;;;;24.80;40.10;;;;;;456744;260;1171;-73
2021/10/08 00:51:58;;;;;;;;;;;24.90;39.90;;;;;;456536;259;1223;-73
2021/10/08 00:53:59;;;;;;;;;;;24.60;40.20;;;;;;456669;260;2147;-73
2021/10/08 00:56:01;;;;;;;;;;;24.70;40.40;;;;;;456545;259;1176;-73
2021/10/08 00:58:02;;;;;;;;;;;24.80;40.30;;;;;;456783;260;1203;-73
2021/10/08 01:00:03;;;;;;;;;;;24.80;40.20;;;;;;456698;261;1118;-73
2021/10/08 01:02:04;;;;;;;;;;;24.70;40.20;;;;;;456643;260;1208;-73
2021/10/08 01:04:06;;;;;;;;;;;24.60;40.40;;;;;;456721;261;1049;-73
2021/10/08 01:06:07;;;;;;;;;;;24.60;40.40;;;;;;456681;260;1290;-73
2021/10/08 01:08:09;;;;;;;;;;;24.60;40.50;;;;;;456771;260;1101;-73
2021/10/08 01:10:10;;;;;;;;;;;24.80;40.30;;;;;;456739;260;991;-73
2021/10/08 01:12:11;;;;;;;;;;;24.70;40.30;;;;;;456781;260;979;-73
2021/10/08 01:14:13;;;;;;;;;;;24.60;40.40;;;;;;456731;260;2140;-73
2021/10/08 01:16:14;;;;;;;;;;;24.60;40.50;;;;;;456749;260;987;-73
2021/10/08 01:18:15;;;;;;;;;;;24.70;40.40;;;;;;456733;260;955;-73
2021/10/08 01:20:17;;;;;;;;;;;24.80;40.20;;;;;;456704;260;1163;-73
2021/10/08 01:22:18;;;;;;;;;;;24.80;40.30;;;;;;456791;259;1131;-73
2021/10/08 01:24:19;;;;;;;;;;;24.80;40.30;;;;;;456798;260;982;-73
2021/10/08 01:26:20;;;;;;;;;;;24.60;40.50;;;;;;456711;260;1251;-73
2021/10/08 01:28:22;;;;;;;;;;;24.40;40.80;;;;;;456832;260;996;-73
2021/10/08 01:30:23;;;;;;;;;;;24.40;40.90;;;;;;456742;260;1308;-73
2021/10/08 01:32:24;;;;;;;;;;;24.40;40.90;;;;;;456771;260;1155;-73
2021/10/08 01:34:26;;;;;;;;;;;24.40;41.00;;;;;;456808;260;2202;-73
2021/10/08 01:36:27;;;;;;;;;;;24.50;40.90;;;;;;456713;260;1230;-73
2021/10/08 01:38:28;;;;;;;;;;;24.80;40.60;;;;;;456706;260;1221;-73
2021/10/08 01:40:30;;;;;;;;;;;24.60;40.70;;;;;;456704;260;1592;-73
2021/10/08 01:42:31;;;;;;;;;;;24.60;40.80;;;;;;456767;260;1128;-73
2021/10/08 01:44:32;;;;;;;;;;;24.70;40.70;;;;;;456830;260;1125;-73
2021/10/08 01:46:34;;;;;;;;;;;24.60;40.70;;;;;;456783;258;1140;-73
2021/10/08 01:48:35;;;;;;;;;;;24.60;40.80;;;;;;456776;260;1248;-73
2021/10/08 01:50:36;;;;;;;;;;;24.50;40.90;;;;;;456707;261;1034;-73
2021/10/08 01:52:38;;;;;;;;;;;24.70;40.70;;;;;;456689;260;1150;-73
2021/10/08 01:54:39;;;;;;;;;;;24.60;40.80;;;;;;456696;260;1001;-73
2021/10/08 01:56:44;;;;;;;;;;;24.90;40.40;;;;;;456694;260;1253;-73
2021/10/08 01:58:42;;;;;;;;;;;25.20;39.80;;;;;;456764;260;1429;-73
2021/10/08 02:00:44;;;;;;;;;;;25.30;39.50;;;;;;456650;261;1155;-73
2021/10/08 02:02:45;;;;;;;;;;;25.20;39.60;;;;;;456718;260;1226;-73
2021/10/08 02:04:47;;;;;;;;;;;25.10;39.70;;;;;;456842;260;963;-73
2021/10/08 02:06:48;;;;;;;;;;;25.20;39.70;;;;;;456748;260;1277;-73
2021/10/08 02:08:49;;;;;;;;;;;25.20;39.70;;;;;;456752;260;1130;-73
2021/10/08 02:10:51;;;;;;;;;;;25.30;39.60;;;;;;456712;261;1183;-73
2021/10/08 02:12:52;;;;;;;;;;;25.20;39.70;;;;;;456765;260;2150;-73
2021/10/08 02:14:53;;;;;;;;;;;25.30;39.50;;;;;;456707;260;1030;-73
2021/10/08 02:16:55;;;;;;;;;;;25.40;39.60;;;;;;456750;258;1344;-73
2021/10/08 02:18:56;;;;;;;;;;;25.30;39.60;;;;;;456744;261;1171;-73
2021/10/08 02:20:57;;;;;;;;;;;25.30;39.60;;;;;;456747;260;1219;-73
2021/10/08 02:22:59;;;;;;;;;;;25.30;39.50;;;;;;456783;260;1161;-73
2021/10/08 02:25:00;;;;;;;;;;;25.40;39.50;;;;;;456790;260;986;-73
2021/10/08 02:27:01;;;;;;;;;;;25.50;39.40;;;;;;456703;261;1170;-73
2021/10/08 02:29:02;;;;;;;;;;;25.60;39.30;;;;;;456702;259;1013;-73
2021/10/08 02:31:04;;;;;;;;;;;25.50;39.40;;;;;;456644;261;1129;-73
2021/10/08 02:33:05;;;;;;;;;;;25.40;39.30;;;;;;456731;260;2194;-73
2021/10/08 02:35:06;;;;;;;;;;;25.50;39.30;;;;;;456797;260;971;-73
2021/10/08 02:37:08;;;;;;;;;;;25.40;39.30;;;;;;456753;260;1265;-73
2021/10/08 02:39:09;;;;;;;;;;;25.50;39.40;;;;;;456758;260;982;-73
2021/10/08 02:41:10;;;;;;;;;;;25.50;39.30;;;;;;456706;260;1205;-73
2021/10/08 02:43:13;;;;;;;;;;;25.60;39.20;;;;;;456785;260;1161;-73
2021/10/08 02:45:13;;;;;;;;;;;25.50;39.20;;;;;;456860;260;1552;-73
2021/10/08 02:47:15;;;;;;;;;;;25.60;39.30;;;;;;456842;259;1247;-73
2021/10/08 02:49:21;;;;;;;;;;;25.60;39.20;;;;;;456747;260;992;-73
2021/10/08 02:51:18;;;;;;;;;;;25.60;39.30;;;;;;456626;260;1470;-73
2021/10/08 02:53:19;;;;;;;;;;;25.60;39.30;;;;;;456740;260;2218;-73
2021/10/08 02:55:20;;;;;;;;;;;25.60;39.30;;;;;;456727;260;989;-73
2021/10/08 02:57:22;;;;;;;;;;;25.50;39.20;;;;;;456732;260;1188;-73
2021/10/08 02:59:23;;;;;;;;;;;25.50;39.20;;;;;;456781;260;1080;-73
2021/10/08 03:01:24;;;;;;;;;;;25.10;39.90;;;;;;456714;260;971;-73
2021/10/08 03:03:26;;;;;;;;;;;25.00;40.00;;;;;;456796;260;973;-73
2021/10/08 03:05:27;;;;;;;;;;;24.80;40.50;;;;;;456710;261;948;-73
2021/10/08 03:07:29;;;;;;;;;;;24.70;40.80;;;;;;456715;261;1490;-73
2021/10/08 03:09:30;;;;;;;;;;;24.60;40.80;;;;;;456687;261;970;-73
2021/10/08 03:11:31;;;;;;;;;;;24.80;40.60;;;;;;456706;260;1130;-73
2021/10/08 03:13:32;;;;;;;;;;;24.80;40.50;;;;;;456714;260;2199;-73
2021/10/08 03:15:34;;;;;;;;;;;24.80;40.40;;;;;;456718;260;1015;-72
2021/10/08 03:17:35;;;;;;;;;;;24.80;40.50;;;;;;456751;260;1141;-72
2021/10/08 03:19:36;;;;;;;;;;;24.70;40.80;;;;;;456761;260;1101;-73
2021/10/08 03:21:38;;;;;;;;;;;24.70;40.70;;;;;;456670;260;1240;-73
2021/10/08 03:23:39;;;;;;;;;;;24.80;40.50;;;;;;456682;260;1176;-73
2021/10/08 03:25:40;;;;;;;;;;;24.70;40.60;;;;;;456677;260;1115;-73
2021/10/08 03:27:42;;;;;;;;;;;24.80;40.50;;;;;;456665;257;1216;-73
2021/10/08 03:29:43;;;;;;;;;;;24.70;40.70;;;;;;456748;260;1268;-73
2021/10/08 03:31:44;;;;;;;;;;;24.60;40.90;;;;;;456627;260;1227;-73
2021/10/08 03:33:46;;;;;;;;;;;24.90;40.50;;;;;;456724;260;2210;-73
2021/10/08 03:35:47;;;;;;;;;;;24.60;40.90;;;;;;456730;260;1126;-73
2021/10/08 03:37:52;;;;;;;;;;;24.70;40.80;;;;;;456770;260;1168;-73
2021/10/08 03:39:51;;;;;;;;;;;24.60;40.90;;;;;;456667;260;1439;-73
2021/10/08 03:41:53;;;;;;;;;;;24.70;40.70;;;;;;456551;260;1247;-73
2021/10/08 03:43:55;;;;;;;;;;;24.80;40.50;;;;;;456695;260;1353;-72
2021/10/08 03:46:00;;;;;;;;;;;24.90;40.50;;;;;;456640;261;1377;-73
2021/10/08 03:48:04;;;;;;;;;;;24.80;40.50;;;;;;456632;261;1430;-73
2021/10/08 03:50:00;;;;;;;;;;;24.80;40.50;;;;;;456713;260;1460;-73
2021/10/08 03:52:01;;;;;;;;;;;24.80;40.50;;;;;;456668;260;1218;-73
2021/10/08 03:54:02;;;;;;;;;;;24.70;40.70;;;;;;456752;260;2214;-73
2021/10/08 03:56:04;;;;;;;;;;;24.70;40.70;;;;;;456764;260;1042;-73
2021/10/08 03:58:05;;;;;;;;;;;24.80;40.70;;;;;;456295;261;1127;-73
2021/10/08 04:00:06;;;;;;;;;;;24.70;40.60;;;;;;456747;260;1005;-73
2021/10/08 04:02:08;;;;;;;;;;;24.80;40.70;;;;;;456705;257;1238;-73
2021/10/08 04:04:09;;;;;;;;;;;24.60;41.00;;;;;;456678;260;1120;-73
2021/10/08 04:06:11;;;;;;;;;;;24.70;40.80;;;;;;456601;261;1365;-73
2021/10/08 04:08:12;;;;;;;;;;;24.60;40.90;;;;;;456694;260;1159;-73
2021/10/08 04:10:13;;;;;;;;;;;24.70;40.80;;;;;;456642;260;987;-73
2021/10/08 04:12:14;;;;;;;;;;;24.70;40.70;;;;;;456699;260;1447;-73
2021/10/08 04:14:16;;;;;;;;;;;24.70;40.80;;;;;;456642;260;2208;-73
2021/10/08 04:16:17;;;;;;;;;;;24.80;40.60;;;;;;456636;260;1261;-73
2021/10/08 04:18:19;;;;;;;;;;;24.80;40.50;;;;;;456559;261;992;-73
2021/10/08 04:20:20;;;;;;;;;;;24.70;40.50;;;;;;456649;259;1000;-73
2021/10/08 04:22:21;;;;;;;;;;;24.70;40.50;;;;;;456489;261;1220;-73
2021/10/08 04:24:23;;;;;;;;;;;24.60;40.70;;;;;;456685;260;1192;-73
2021/10/08 04:26:24;;;;;;;;;;;25.10;40.20;;;;;;456597;258;1220;-73
2021/10/08 04:28:25;;;;;;;;;;;25.20;39.80;;;;;;456600;260;975;-73
2021/10/08 04:30:26;;;;;;;;;;;25.30;39.70;;;;;;456542;260;1018;-73
2021/10/08 04:32:28;;;;;;;;;;;25.30;39.60;;;;;;456553;260;1165;-73
2021/10/08 04:34:29;;;;;;;;;;;25.40;39.50;;;;;;456546;260;2198;-73
2021/10/08 04:36:31;;;;;;;;;;;25.40;39.40;;;;;;456502;260;1247;-73
2021/10/08 04:38:32;;;;;;;;;;;25.50;39.40;;;;;;456645;260;1183;-73
2021/10/08 04:40:33;;;;;;;;;;;25.50;39.40;;;;;;456535;261;1237;-73
2021/10/08 04:42:34;;;;;;;;;;;25.50;39.40;;;;;;456576;260;1276;-73
2021/10/08 04:44:36;;;;;;;;;;;25.50;39.40;;;;;;456615;260;958;-73
2021/10/08 04:46:37;;;;;;;;;;;25.40;39.60;;;;;;456544;259;1247;-73
2021/10/08 04:48:38;;;;;;;;;;;25.50;39.50;;;;;;456582;260;973;-74
2021/10/08 04:50:40;;;;;;;;;;;25.50;39.40;;;;;;456172;261;1045;-72
2021/10/08 04:52:41;;;;;;;;;;;25.50;39.30;;;;;;456448;261;1286;-72
2021/10/08 04:54:42;;;;;;;;;;;25.50;39.30;;;;;;456385;261;2166;-72
2021/10/08 04:56:44;;;;;;;;;;;25.50;39.40;;;;;;456414;260;1156;-72
2021/10/08 04:58:45;;;;;;;;;;;25.60;39.40;;;;;;456567;260;1108;-73
2021/10/08 05:00:46;;;;;;;;;;;25.50;39.40;;;;;;456433;261;1130;-73
2021/10/08 05:02:48;;;;;;;;;;;25.50;39.40;;;;;;456442;261;1248;-73
2021/10/08 05:04:49;;;;;;;;;;;25.50;39.50;;;;;;456479;260;1047;-73
2021/10/08 05:06:50;;;;;;;;;;;25.50;39.50;;;;;;456508;260;1218;-73
2021/10/08 05:08:52;;;;;;;;;;;25.50;39.40;;;;;;456389;260;1188;-73
2021/10/08 05:10:53;;;;;;;;;;;25.50;39.40;;;;;;456332;260;1154;-73
2021/10/08 05:12:54;;;;;;;;;;;25.30;39.60;;;;;;456506;260;1197;-73
2021/10/08 05:14:56;;;;;;;;;;;24.90;40.10;;;;;;456481;260;2211;-73
2021/10/08 05:16:57;;;;;;;;;;;24.80;40.60;;;;;;456460;260;1245;-73
2021/10/08 05:18:58;;;;;;;;;;;24.90;40.50;;;;;;456446;260;1033;-73
2021/10/08 05:20:59;;;;;;;;;;;25.00;40.50;;;;;;456359;258;1148;-73
2021/10/08 05:23:01;;;;;;;;;;;24.70;40.70;;;;;;456419;261;1219;-73
2021/10/08 05:25:02;;;;;;;;;;;24.70;40.70;;;;;;456394;260;1242;-73
2021/10/08 05:27:03;;;;;;;;;;;24.50;41.10;;;;;;456324;260;1149;-73
2021/10/08 05:29:05;;;;;;;;;;;24.40;41.40;;;;;;456369;260;1141;-73
2021/10/08 05:31:06;;;;;;;;;;;24.20;41.70;;;;;;456351;260;1154;-73
2021/10/08 05:33:07;;;;;;;;;;;24.20;41.90;;;;;;456454;260;1243;-73
2021/10/08 05:35:09;;;;;;;;;;;23.90;42.00;;;;;;456402;260;2147;-73
2021/10/08 05:37:10;;;;;;;;;;;23.90;42.40;;;;;;456390;260;1139;-73
2021/10/08 05:39:11;;;;;;;;;;;23.70;42.40;;;;;;456262;259;1149;-72
2021/10/08 05:41:13;;;;;;;;;;;23.80;42.60;;;;;;456164;260;1584;-72
2021/10/08 05:43:14;;;;;;;;;;;23.70;42.80;;;;;;456289;260;1100;-72
2021/10/08 05:45:15;;;;;;;;;;;23.80;42.80;;;;;;456343;260;1121;-73
2021/10/08 05:47:17;;;;;;;;;;;24.10;42.10;;;;;;456287;260;1213;-73
2021/10/08 05:49:18;;;;;;;;;;;24.30;41.80;;;;;;456209;260;1136;-73
2021/10/08 05:51:19;;;;;;;;;;;24.30;41.60;;;;;;456161;260;1131;-73
2021/10/08 05:53:21;;;;;;;;;;;24.30;41.50;;;;;;456392;260;1056;-73
2021/10/08 05:55:23;;;;;;;;;;;24.40;41.40;;;;;;456251;260;2194;-73
2021/10/08 05:57:23;;;;;;;;;;;24.20;41.80;;;;;;456277;260;1627;-73
2021/10/08 05:59:25;;;;;;;;;;;24.30;41.70;;;;;;456300;260;1021;-73
2021/10/08 06:01:26;;;;;;;;;;;24.20;41.90;;;;;;456155;260;1157;-73
2021/10/08 06:03:27;;;;;;;;;;;24.20;41.90;;;;;;456199;260;1240;-73
2021/10/08 06:05:29;;;;;;;;;;;24.20;41.80;;;;;;456204;260;1445;-73
2021/10/08 06:07:30;;;;;;;;;;;24.20;41.80;;;;;;456247;259;1246;-73
2021/10/08 06:09:31;;;;;;;;;;;24.20;41.80;;;;;;456124;260;1054;-72
2021/10/08 06:11:32;;;;;;;;;;;24.20;41.80;;;;;;456017;260;1292;-72
2021/10/08 06:13:35;;;;;;;;;;;24.20;41.90;;;;;;456126;260;997;-72
2021/10/08 06:15:35;;;;;;;;;;;24.20;41.80;;;;;;455997;261;2203;-72
2021/10/08 06:17:36;;;;;;;;;;;24.20;41.80;;;;;;456104;261;1093;-72
2021/10/08 06:19:40;;;;;;;;;;;24.20;41.80;;;;;;456122;260;1093;-72
2021/10/08 06:21:40;;;;;;;;;;;24.30;41.70;;;;;;456007;258;1304;-72
2021/10/08 06:23:40;;;;;;;;;;;24.30;41.80;;;;;;456154;260;1555;-72
2021/10/08 06:25:42;;;;;;;;;;;24.20;41.90;;;;;;456133;260;1304;-72
2021/10/08 06:27:43;;;;;;;;;;;24.10;42.10;;;;;;456261;259;1231;-73
2021/10/08 06:29:44;;;;;;;;;;;24.20;41.90;;;;;;456204;260;1083;-73
2021/10/08 06:31:46;;;;;;;;;;;24.10;42.10;;;;;;456034;260;1310;-73
2021/10/08 06:33:47;;;;;;;;;;;24.00;42.10;;;;;;456168;260;1096;-73
2021/10/08 06:35:49;;;;;;;;;;;24.00;42.20;;;;;;456092;260;2128;-73
2021/10/08 06:37:50;;;;;;;;;;;24.00;42.40;;;;;;456165;260;1218;-73
2021/10/08 06:39:51;;;;;;;;;;;23.90;42.40;;;;;;456148;261;999;-73
2021/10/08 06:41:53;;;;;;;;;;;23.70;42.90;;;;;;455997;260;1206;-73
2021/10/08 06:43:54;;;;;;;;;;;23.70;43.00;;;;;;455933;260;1075;-72
2021/10/08 06:45:55;;;;;;;;;;;24.00;42.60;;;;;;455896;260;1420;-72
2021/10/08 06:47:57;;;;;;;;;;;23.90;42.40;;;;;;455976;260;1117;-72
2021/10/08 06:49:58;;;;;;;;;;;23.90;42.50;;;;;;456008;260;1116;-73
2021/10/08 06:51:59;;;;;;;;;;;24.10;42.30;;;;;;456078;260;1145;-73
2021/10/08 06:54:00;;;;;;;;;;;24.00;42.30;;;;;;456009;260;1087;-73
2021/10/08 06:56:02;;;;;;;;;;;24.00;42.20;;;;;;455935;260;2206;-73
2021/10/08 06:58:03;;;;;;;;;;;24.10;42.30;;;;;;455994;260;1237;-73
2021/10/08 07:00:06;;;;;;;;;;;24.20;42.10;;;;;;456019;260;1078;-73
2021/10/08 07:02:06;;;;;;;;;;;24.20;42.00;;;;;;455916;261;1331;-73
2021/10/08 07:04:07;;;;;;;;;;;24.30;41.80;;;;;;456038;260;1098;-73
2021/10/08 07:06:09;;;;;;;;;;;24.30;42.00;;;;;;455629;260;1420;-73
2021/10/08 07:08:10;;;;;;;;;;;24.40;41.70;;;;;;455887;260;1187;-73
2021/10/08 07:10:11;;;;;;;;;;;24.40;41.80;;;;;;455896;260;1040;-73
2021/10/08 07:12:13;;;;;;;;;;;24.50;41.50;;;;;;455819;260;1178;-73
2021/10/08 07:14:14;;;;;;;;;;;24.80;41.10;;;;;;455959;260;1067;-72
2021/10/08 07:16:15;;;;;;;;;;;24.80;40.90;;;;;;455981;260;2130;-72
2021/10/08 07:18:23;;;;;;;;;;;25.10;40.60;;;;;;455883;260;1053;-73
2021/10/08 07:20:18;;;;;;;;;;;25.30;40.30;;;;;;455904;260;1594;-73
2021/10/08 07:22:19;;;;;;;;;;;25.40;40.10;;;;;;455886;260;1177;-73
2021/10/08 07:24:21;;;;;;;;;;;25.40;40.00;;;;;;455947;260;1128;-72
2021/10/08 07:26:22;;;;;;;;;;;25.60;39.80;;;;;;455857;258;1472;-72
2021/10/08 07:28:23;;;;;;;;;;;25.70;39.60;;;;;;455985;260;1161;-72
2021/10/08 07:30:25;;;;;;;;;;;25.80;39.40;;;;;;455822;260;1017;-73
2021/10/08 07:32:27;;;;;;;;;;;25.90;39.20;;;;;;455841;260;1204;-73
2021/10/08 07:34:27;;;;;;;;;;;25.60;39.60;;;;;;455339;261;2214;-73
2021/10/08 07:36:29;;;;;;;;;;;25.70;39.60;;;;;;455909;258;1174;-73
2021/10/08 07:38:30;;;;;;;;;;;25.60;39.70;;;;;;455890;260;1186;-73
2021/10/08 07:40:31;;;;;;;;;;;25.60;39.90;;;;;;455743;260;1078;-73
2021/10/08 07:42:34;;;;;;;;;;;25.60;39.90;;;;;;455815;260;1137;-73
2021/10/08 07:44:34;;;;;;;;;;;25.50;40.00;;;;;;455785;260;1428;-73
2021/10/08 07:46:35;;;;;;;;;;;25.50;40.00;;;;;;455826;259;1515;-73
2021/10/08 07:48:37;;;;;;;;;;;25.40;40.30;;;;;;455794;260;1286;-73
2021/10/08 07:50:38;;;;;;;;;;;25.40;40.10;;;;;;455819;260;1599;-73
2021/10/08 07:52:39;;;;;;;;;;;25.40;40.20;;;;;;455848;260;1104;-73
2021/10/08 07:54:40;;;;;;;;;;;25.60;40.10;;;;;;455763;260;2191;-73
2021/10/08 07:56:42;;;;;;;;;;;25.50;40.00;;;;;;455778;259;1245;-73
2021/10/08 07:58:43;;;;;;;;;;;25.70;40.00;;;;;;455863;259;1175;-73
2021/10/08 08:00:44;;;;;;;;;;;25.50;40.00;;;;;;455845;260;1059;-73
2021/10/08 08:02:46;;;;;;;;;;;25.60;39.80;;;;;;455939;260;1200;-73
2021/10/08 08:04:47;;;;;;;;;;;25.70;39.80;;;;;;455899;260;1004;-73
2021/10/08 08:06:48;;;;;;;;;;;25.70;39.70;;;;;;455759;260;1260;-73
2021/10/08 08:08:50;;;;;;;;;;;25.70;39.90;;;;;;455880;260;1069;-72
2021/10/08 08:10:51;;;;;;;;;;;25.70;39.70;;;;;;455827;260;1015;-73
2021/10/08 08:12:52;;;;;;;;;;;25.80;39.70;;;;;;455934;260;1196;-73
2021/10/08 08:14:54;;;;;;;;;;;25.80;39.70;;;;;;455854;260;2164;-73
2021/10/08 08:16:55;;;;;;;;;;;25.70;39.70;;;;;;455873;260;1266;-73
2021/10/08 08:18:56;;;;;;;;;;;25.80;39.90;;;;;;455828;260;995;-73
2021/10/08 08:20:58;;;;;;;;;;;25.90;39.70;;;;;;455655;260;1161;-73
2021/10/08 08:22:59;;;;;;;;;;;25.90;39.70;;;;;;456273;260;1204;-73
2021/10/08 08:25:00;;;;;;;;;;;25.70;40.00;;;;;;455931;260;1013;-73
2021/10/08 08:27:02;;;;;;;;;;;25.80;39.70;;;;;;455701;260;1219;-73
2021/10/08 08:29:03;;;;;;;;;;;25.80;39.70;;;;;;455929;260;1112;-73
2021/10/08 08:31:04;;;;;;;;;;;25.90;39.90;;;;;;455796;261;1119;-73
2021/10/08 08:33:06;;;;;;;;;;;25.80;39.90;;;;;;455922;260;1031;-73
2021/10/08 08:35:07;;;;;;;;;;;25.90;39.90;;;;;;455880;260;2139;-73
2021/10/08 08:37:08;;;;;;;;;;;26.00;39.80;;;;;;455864;260;1145;-73
2021/10/08 08:39:11;;;;;;;;;;;26.00;39.70;;;;;;455903;259;1164;-73
2021/10/08 08:41:11;;;;;;;;;;;26.10;39.60;;;;;;455812;260;1475;-73
2021/10/08 08:43:13;;;;;;;;;;;26.00;39.60;;;;;;455797;261;1281;-73
2021/10/08 08:45:14;;;;;;;;;;;25.90;40.00;;;;;;455718;261;1281;-73
2021/10/08 08:47:15;;;;;;;;;;;26.20;39.60;;;;;;455896;260;1132;-73
2021/10/08 08:49:16;;;;;;;;;;;26.10;39.70;;;;;;455703;260;1022;-73
2021/10/08 08:51:18;;;;;;;;;;;26.00;39.60;;;;;;455597;260;1461;-73
2021/10/08 08:53:21;;;;;;;;;;;26.10;39.70;;;;;;455684;259;1091;-73
2021/10/08 08:55:21;;;;;;;;;;;26.10;39.60;;;;;;455715;261;2146;-73
2021/10/08 08:57:22;;;;;;;;;;;26.10;39.70;;;;;;455896;260;1236;-73
2021/10/08 08:59:24;;;;;;;;;;;26.20;39.70;;;;;;455774;261;1028;-73
2021/10/08 09:01:25;;;;;;;;;;;26.00;39.70;;;;;;455750;260;1200;-73
2021/10/08 09:03:26;;;;;;;;;;;26.10;39.90;;;;;;455865;260;1126;-73
2021/10/08 09:05:28;;;;;;;;;;;26.20;39.70;;;;;;455682;260;996;-73
2021/10/08 09:07:29;;;;;;;;;;;26.10;39.60;;;;;;455656;260;1210;-72
2021/10/08 09:09:30;;;;;;;;;;;26.20;39.60;;;;;;455792;260;1139;-73
2021/10/08 09:11:32;;;;;;;;;;;26.00;39.80;;;;;;455744;258;1353;-73
2021/10/08 09:13:33;;;;;;;;;;;26.10;39.80;;;;;;455804;260;1697;-73
2021/10/08 09:15:34;;;;;;;;;;;26.00;40.00;;;;;;455876;260;2127;-73
2021/10/08 09:17:36;;;;;;;;;;;26.10;39.90;;;;;;455813;260;1081;-73
2021/10/08 09:19:37;;;;;;;;;;;26.00;39.90;;;;;;455740;260;988;-73
2021/10/08 09:21:38;;;;;;;;;;;25.90;40.10;;;;;;455594;261;1213;-73
2021/10/08 09:23:41;;;;;;;;;;;25.40;40.60;;;;;;455821;260;1370;-73
2021/10/08 09:25:41;;;;;;;;;;;25.20;41.20;;;;;;455847;260;1266;-73
2021/10/08 09:27:42;;;;;;;;;;;25.10;41.60;;;;;;455842;260;1167;-73
2021/10/08 09:29:44;;;;;;;;;;;24.70;42.40;;;;;;455346;261;1029;-73
2021/10/08 09:31:45;;;;;;;;;;;24.50;42.60;;;;;;455466;260;1383;-73
2021/10/08 09:33:47;;;;;;;;;;;24.30;43.20;;;;;;455759;260;1131;-73
2021/10/08 09:35:48;;;;;;;;;;;23.90;43.80;;;;;;455604;260;2191;-73
2021/10/08 09:37:49;;;;;;;;;;;24.00;44.00;;;;;;456156;260;1978;-73
2021/10/08 09:39:51;;;;;;;;;;;23.80;44.20;;;;;;455777;260;992;-73
2021/10/08 09:41:53;;;;;;;;;;;23.70;44.60;;;;;;455773;261;1262;-73
2021/10/08 09:43:53;;;;;;;;;;;23.70;44.70;;;;;;455780;260;1375;-73
2021/10/08 09:45:55;;;;;;;;;;;23.60;44.90;;;;;;455616;254;1255;-73
2021/10/08 09:47:57;;;;;;;;;;;23.20;45.50;;;;;;455845;259;1096;-73
2021/10/08 09:49:57;;;;;;;;;;;23.40;45.50;;;;;;455915;259;1322;-73
2021/10/08 09:51:59;;;;;;;;;;;23.20;45.60;;;;;;455800;260;1269;-72
2021/10/08 09:54:00;;;;;;;;;;;23.20;45.80;;;;;;455855;260;1221;-73
2021/10/08 09:56:01;;;;;;;;;;;23.00;46.20;;;;;;455840;254;2136;-73
2021/10/08 09:58:03;;;;;;;;;;;23.10;46.10;;;;;;456113;260;1166;-73
2021/10/08 10:00:04;;;;;;;;;;;23.00;46.40;;;;;;455907;260;995;-73
2021/10/08 10:02:06;;;;;;;;;;;23.10;46.30;;;;;;455961;260;1221;-73
2021/10/08 10:04:08;;;;;;;;;;;23.10;46.20;;;;;;455801;260;1219;-73
2021/10/08 10:06:08;;;;;;;;;;;23.60;45.30;;;;;;455652;261;1477;-73
2021/10/08 10:08:10;;;;;;;;;;;23.60;45.20;;;;;;456365;261;1056;-73
2021/10/08 10:10:11;;;;;;;;;;;23.70;44.90;;;;;;455874;260;1205;-73
2021/10/08 10:12:12;;;;;;;;;;;23.70;45.20;;;;;;456055;260;1249;-73
2021/10/08 10:14:13;;;;;;;;;;;23.60;45.10;;;;;;455939;260;1531;-73
2021/10/08 10:16:15;;;;;;;;;;;23.90;45.00;;;;;;455922;261;2124;-73
2021/10/08 10:18:16;;;;;;;;;;;23.70;45.00;;;;;;455928;260;1237;-73
2021/10/08 10:20:17;;;;;;;;;;;23.70;45.20;;;;;;455971;260;1291;-73
2021/10/08 10:22:19;;;;;;;;;;;23.80;45.00;;;;;;456104;260;1121;-73
2021/10/08 10:24:20;;;;;;;;;;;23.90;44.80;;;;;;455896;260;1073;-73
2021/10/08 10:26:21;;;;;;;;;;;23.90;44.70;;;;;;455952;259;1255;-73
2021/10/08 10:28:23;;;;;;;;;;;24.00;44.70;;;;;;455928;260;1131;-73
2021/10/08 10:30:24;;;;;;;;;;;24.10;44.80;;;;;;455796;261;1189;-73
2021/10/08 10:32:25;;;;;;;;;;;23.90;44.80;;;;;;455777;259;1219;-73
2021/10/08 10:34:27;;;;;;;;;;;24.10;44.50;;;;;;455994;260;1130;-73
2021/10/08 10:36:28;;;;;;;;;;;23.90;44.80;;;;;;455973;260;2195;-73
2021/10/08 10:38:29;;;;;;;;;;;24.00;44.90;;;;;;455907;260;1076;-73
2021/10/08 10:40:31;;;;;;;;;;;24.00;44.90;;;;;;455774;260;1221;-73
2021/10/08 10:42:32;;;;;;;;;;;23.80;45.20;;;;;;455781;259;1610;-73
2021/10/08 10:44:35;;;;;;;;;;;24.00;45.00;;;;;;456051;261;1299;-74
2021/10/08 10:46:40;;;;;;;;;;;23.70;45.50;;;;;;455933;260;1307;-73
2021/10/08 10:48:45;;;;;;;;;;;23.90;45.20;;;;;;455975;260;1622;-73
2021/10/08 10:50:48;;;;;;;;;;;23.90;45.40;;;;;;455619;260;1532;-73
2021/10/08 10:52:42;;;;;;;;;;;23.90;45.30;;;;;;455903;260;1442;-73
2021/10/08 10:54:48;;;;;;;;;;;23.80;45.40;;;;;;455845;260;988;-73
2021/10/08 10:56:44;;;;;;;;;;;23.80;45.40;;;;;;455714;260;2201;-72
2021/10/08 10:58:45;;;;;;;;;;;23.80;45.40;;;;;;455821;260;1128;-73
2021/10/08 11:00:47;;;;;;;;;;;23.90;45.30;;;;;;455881;260;1269;-72
2021/10/08 11:02:48;;;;;;;;;;;23.90;45.50;;;;;;455872;260;1560;-73
2021/10/08 11:04:51;;;;;;;;;;;23.90;45.40;;;;;;455795;260;1461;-73
2021/10/08 11:06:51;;;;;;;;;;;23.90;45.40;;;;;;455707;260;1371;-73
2021/10/08 11:08:52;;;;;;;;;;;24.10;45.20;;;;;;455704;261;1059;-73
2021/10/08 11:10:53;;;;;;;;;;;23.90;45.50;;;;;;455976;260;1270;-73
2021/10/08 11:12:55;;;;;;;;;;;24.00;45.10;;;;;;455973;260;1075;-73
2021/10/08 11:14:56;;;;;;;;;;;24.10;45.10;;;;;;455683;260;1199;-73
2021/10/08 11:16:57;;;;;;;;;;;24.20;45.00;;;;;;455674;260;2202;-73
2021/10/08 11:18:59;;;;;;;;;;;24.20;45.00;;;;;;455802;260;1159;-73
2021/10/08 11:21:00;;;;;;;;;;;24.30;44.60;;;;;;455779;259;1549;-73
2021/10/08 11:23:01;;;;;;;;;;;24.40;44.60;;;;;;455882;260;1050;-73
2021/10/08 11:25:03;;;;;;;;;;;24.60;44.30;;;;;;455687;260;1165;-73
2021/10/08 11:27:05;;;;;;;;;;;24.80;43.80;;;;;;455723;261;1209;-73
2021/10/08 11:29:06;;;;;;;;;;;24.70;43.90;;;;;;456015;261;1447;-73
2021/10/08 11:31:07;;;;;;;;;;;24.90;43.80;;;;;;455818;260;1224;-73
2021/10/08 11:33:08;;;;;;;;;;;24.90;43.60;;;;;;456026;260;1107;-73
2021/10/08 11:35:10;;;;;;;;;;;24.90;43.60;;;;;;455810;260;1115;-73
2021/10/08 11:37:11;;;;;;;;;;;25.00;43.50;;;;;;455716;260;2207;-73
2021/10/08 11:39:12;;;;;;;;;;;24.90;43.60;;;;;;456045;259;1064;-73
2021/10/08 11:41:14;;;;;;;;;;;25.00;43.60;;;;;;455929;257;1393;-73
2021/10/08 11:43:15;;;;;;;;;;;24.50;44.40;;;;;;455926;260;1165;-73
2021/10/08 11:45:21;;;;;;;;;;;24.30;45.10;;;;;;455703;260;1143;-73
2021/10/08 11:47:22;;;;;;;;;;;24.30;45.00;;;;;;455732;260;1544;-73
2021/10/08 11:49:43;;;;;;;;;;;24.30;45.20;;;;;;455850;260;1668;-73
2021/10/08 11:51:39;;;;;;;;;;;24.00;45.50;;;;;;455776;259;1563;-73
2021/10/08 11:53:40;;;;;;;;;;;23.90;45.80;;;;;;455969;260;1011;-73
2021/10/08 11:55:41;;;;;;;;;;;23.70;46.10;;;;;;456071;259;1170;-73
2021/10/08 11:57:43;;;;;;;;;;;23.90;45.80;;;;;;456108;260;2256;-72